createdAt,value
2023-04-16T00:00:41.905Z,77.00
2023-04-16T00:01:41.890Z,77.20
2023-04-16T00:02:41.910Z,76.20
2023-04-16T00:03:41.949Z,75.60
2023-04-16T00:04:41.749Z,77.60
2023-04-16T00:05:41.655Z,78.50
2023-04-16T00:06:41.550Z,76.20
2023-04-16T00:07:41.513Z,75.00
2023-04-16T00:08:41.428Z,76.70
2023-04-16T00:09:41.377Z,75.50
2023-04-16T00:10:41.272Z,76.10
2023-04-16T00:11:41.225Z,73.70
2023-04-16T00:12:41.196Z,74.30
2023-04-16T00:13:41.088Z,76.50
2023-04-16T00:14:41.052Z,73.50
2023-04-16T00:16:50.263Z,69.30
2023-04-16T00:17:51.228Z,74.50
2023-04-16T00:18:51.075Z,75.70
2023-04-16T00:19:50.981Z,75.20
2023-04-16T00:20:50.984Z,74.50
2023-04-16T00:21:50.904Z,75.20
2023-04-16T00:22:50.836Z,77.60
2023-04-16T00:23:50.742Z,76.50
2023-04-16T00:24:50.707Z,73.70
2023-04-16T00:25:50.661Z,76.20
2023-04-16T00:26:50.583Z,74.90
2023-04-16T00:27:50.809Z,77.50
2023-04-16T00:28:50.444Z,78.00
2023-04-16T00:29:50.366Z,76.40
2023-04-16T00:30:50.334Z,73.50
2023-04-16T00:31:50.226Z,76.40
2023-04-16T00:32:50.218Z,78.20
2023-04-16T00:33:50.178Z,74.10
2023-04-16T00:34:50.068Z,77.20
2023-04-16T00:35:50.006Z,77.70
2023-04-16T00:36:49.972Z,75.30
2023-04-16T00:37:49.846Z,79.60
2023-04-16T00:38:49.783Z,76.50
2023-04-16T00:39:50.057Z,78.20
2023-04-16T00:40:49.713Z,77.40
2023-04-16T00:41:49.625Z,79.70
2023-04-16T00:42:49.552Z,77.00
2023-04-16T00:43:49.489Z,76.80
2023-04-16T00:44:49.404Z,74.30
2023-04-16T00:45:49.352Z,75.20
2023-04-16T00:46:49.277Z,79.40
2023-04-16T00:47:49.254Z,73.90
2023-04-16T00:48:49.173Z,74.90
2023-04-16T00:49:49.113Z,74.70
2023-04-16T00:50:49.082Z,75.30
2023-04-16T00:52:06.471Z,73.20
2023-04-16T00:52:48.927Z,74.60
2023-04-16T00:53:48.865Z,75.50
2023-04-16T00:54:48.830Z,75.10
2023-04-16T00:55:48.712Z,76.80
2023-04-16T00:56:48.642Z,75.60
2023-04-16T00:57:48.612Z,73.40
2023-04-16T00:58:48.533Z,73.70
2023-04-16T00:59:48.475Z,74.70
2023-04-16T01:00:48.402Z,75.30
2023-04-16T01:01:48.394Z,75.20
2023-04-16T01:02:48.379Z,76.30
2023-04-16T01:04:23.818Z,75.40
2023-04-16T01:04:48.192Z,73.20
2023-04-16T01:05:48.095Z,73.90
2023-04-16T01:06:48.041Z,74.20
2023-04-16T01:07:47.964Z,73.90
2023-04-16T01:08:47.895Z,74.40
2023-04-16T01:09:47.862Z,72.60
2023-04-16T01:10:47.818Z,74.00
2023-04-16T01:11:47.689Z,75.10
2023-04-16T01:12:47.663Z,77.60
2023-04-16T01:13:47.615Z,75.40
2023-04-16T01:14:47.505Z,76.10
2023-04-16T01:15:47.548Z,74.20
2023-04-16T01:16:47.410Z,76.90
2023-04-16T01:17:47.407Z,76.50
2023-04-16T01:18:47.243Z,75.30
2023-04-16T01:19:47.182Z,74.60
2023-04-16T01:20:47.153Z,74.50
2023-04-16T01:21:47.112Z,75.30
2023-04-16T01:22:47.022Z,74.80
2023-04-16T01:23:46.930Z,76.00
2023-04-16T01:24:46.891Z,72.40
2023-04-16T01:25:46.838Z,73.80
2023-04-16T01:26:46.772Z,76.50
2023-04-16T01:27:46.691Z,73.70
2023-04-16T01:28:46.638Z,71.40
2023-04-16T01:29:46.578Z,76.10
2023-04-16T01:30:46.539Z,71.10
2023-04-16T01:31:46.532Z,72.80
2023-04-16T01:32:46.449Z,74.10
2023-04-16T01:33:46.370Z,75.70
2023-04-16T01:34:46.238Z,71.60
2023-04-16T01:35:46.176Z,73.40
2023-04-16T01:36:46.130Z,76.10
2023-04-16T01:37:46.046Z,73.20
2023-04-16T01:38:46.005Z,75.40
2023-04-16T01:39:45.962Z,75.20
2023-04-16T01:40:45.850Z,73.90
2023-04-16T01:41:45.791Z,75.00
2023-04-16T01:42:45.787Z,77.70
2023-04-16T01:43:45.691Z,78.20
2023-04-16T01:44:45.627Z,77.60
2023-04-16T01:46:02.899Z,75.80
2023-04-16T01:46:45.493Z,76.00
2023-04-16T01:47:45.452Z,77.60
2023-04-16T01:48:45.376Z,74.30
2023-04-16T01:49:45.297Z,74.40
2023-04-16T01:50:45.238Z,73.50
2023-04-16T01:51:45.201Z,75.80
2023-04-16T01:52:45.133Z,76.90
2023-04-16T01:53:45.052Z,75.30
2023-04-16T01:54:44.995Z,76.00
2023-04-16T01:55:44.958Z,82.30
2023-04-16T01:56:44.863Z,80.10
2023-04-16T01:57:44.804Z,80.20
2023-04-16T01:58:44.766Z,80.20
2023-04-16T01:59:44.675Z,80.50
2023-04-16T02:00:44.624Z,79.20
2023-04-16T02:01:44.620Z,80.70
2023-04-16T02:02:44.659Z,79.40
2023-04-16T02:04:19.387Z,81.20
2023-04-16T02:04:44.394Z,77.50
2023-04-16T02:05:44.292Z,79.20
2023-04-16T02:06:44.199Z,76.80
2023-04-16T02:07:44.146Z,76.60
2023-04-16T02:08:44.109Z,79.10
2023-04-16T02:10:18.964Z,75.50
2023-04-16T02:10:43.976Z,78.00
2023-04-16T02:11:43.911Z,78.80
2023-04-16T02:12:43.866Z,79.10
2023-04-16T02:13:43.813Z,77.50
2023-04-16T02:14:43.748Z,77.50
2023-04-16T02:15:43.645Z,80.00
2023-04-16T02:16:43.627Z,79.20
2023-04-16T02:17:43.561Z,83.50
2023-04-16T02:18:43.472Z,85.80
2023-04-16T02:19:43.397Z,80.80
2023-04-16T02:20:43.342Z,84.60
2023-04-16T02:21:43.327Z,83.40
2023-04-16T02:22:43.208Z,86.50
2023-04-16T02:23:43.155Z,85.20
2023-04-16T02:24:43.114Z,86.10
2023-04-16T02:25:43.046Z,86.40
2023-04-16T02:26:42.957Z,89.20
2023-04-16T02:27:42.878Z,92.60
2023-04-16T02:28:42.840Z,88.80
2023-04-16T02:29:42.738Z,92.50
2023-04-16T02:30:42.715Z,88.70
2023-04-16T02:31:42.661Z,87.00
2023-04-16T02:32:42.589Z,87.00
2023-04-16T02:34:17.576Z,87.60
2023-04-16T02:34:42.453Z,86.50
2023-04-16T02:35:42.367Z,89.30
2023-04-16T02:36:42.330Z,89.70
2023-04-16T02:37:42.257Z,86.70
2023-04-16T02:38:42.224Z,88.40
2023-04-16T02:39:59.510Z,92.40
2023-04-16T02:40:42.102Z,91.50
2023-04-16T02:41:42.028Z,87.60
2023-04-16T02:42:41.923Z,88.10
2023-04-16T02:43:41.851Z,88.00
2023-04-16T02:44:41.865Z,87.90
2023-04-16T02:45:41.796Z,88.70
2023-04-16T02:46:41.718Z,90.10
2023-04-16T02:47:41.647Z,89.90
2023-04-16T02:48:41.563Z,87.00
2023-04-16T02:49:41.495Z,88.90
2023-04-16T02:50:41.472Z,94.10
2023-04-16T02:51:41.370Z,91.80
2023-04-16T02:52:41.304Z,94.00
2023-04-16T02:53:41.225Z,98.20
2023-04-16T02:54:41.192Z,97.70
2023-04-16T02:55:41.118Z,95.10
2023-04-16T02:56:41.026Z,97.90
2023-04-16T02:57:58.406Z,98.80
2023-04-16T02:58:40.895Z,100.60
2023-04-16T02:59:40.896Z,101.50
2023-04-16T03:00:40.797Z,99.40
2023-04-16T03:01:40.786Z,102.30
2023-04-16T03:02:40.786Z,104.70
2023-04-16T03:03:40.627Z,105.50
2023-04-16T03:04:40.624Z,105.90
2023-04-16T03:05:40.614Z,110.40
2023-04-16T03:06:40.396Z,112.10
2023-04-16T03:07:40.327Z,111.70
2023-04-16T03:08:40.291Z,112.20
2023-04-16T03:09:40.279Z,115.30
2023-04-16T03:10:40.164Z,118.00
2023-04-16T03:11:40.101Z,119.00
2023-04-16T03:12:40.067Z,117.50
2023-04-16T03:13:39.999Z,119.50
2023-04-16T03:14:39.915Z,119.70
2023-04-16T03:15:40.141Z,122.60
2023-04-16T03:16:39.779Z,118.20
2023-04-16T03:17:39.788Z,123.10
2023-04-16T03:18:39.682Z,127.70
2023-04-16T03:19:39.618Z,126.80
2023-04-16T03:20:39.537Z,127.80
2023-04-16T03:21:39.503Z,127.40
2023-04-16T03:22:39.390Z,131.40
2023-04-16T03:23:39.373Z,130.20
2023-04-16T03:24:39.277Z,128.50
2023-04-16T03:25:39.188Z,133.60
2023-04-16T03:26:39.147Z,140.60
2023-04-16T03:27:39.130Z,138.60
2023-04-16T03:28:39.056Z,139.10
2023-04-16T03:29:38.961Z,133.80
2023-04-16T03:30:38.895Z,140.50
2023-04-16T03:31:38.889Z,143.80
2023-04-16T03:32:38.824Z,142.90
2023-04-16T03:33:38.745Z,139.60
2023-04-16T03:34:38.622Z,132.50
2023-04-16T03:35:38.578Z,139.20
2023-04-16T03:36:38.515Z,144.30
2023-04-16T03:37:38.458Z,144.20
2023-04-16T03:38:38.415Z,142.30
2023-04-16T03:39:38.363Z,142.20
2023-04-16T03:40:38.263Z,137.00
2023-04-16T03:41:38.196Z,142.70
2023-04-16T03:42:38.170Z,136.50
2023-04-16T03:43:38.157Z,136.00
2023-04-16T03:44:38.009Z,133.70
2023-04-16T03:45:37.922Z,136.90
2023-04-16T03:46:38.002Z,139.90
2023-04-16T03:47:37.866Z,138.50
2023-04-16T03:48:37.750Z,138.90
2023-04-16T03:49:37.695Z,139.90
2023-04-16T03:50:37.627Z,133.40
2023-04-16T03:52:47.187Z,130.40
2023-04-16T03:53:47.721Z,134.30
2023-04-16T03:54:47.630Z,135.70
2023-04-16T03:55:47.622Z,132.10
2023-04-16T03:56:47.542Z,136.20
2023-04-16T03:57:47.506Z,140.30
2023-04-16T03:58:47.448Z,134.30
2023-04-16T03:59:47.323Z,136.70
2023-04-16T04:00:47.282Z,135.20
2023-04-16T04:01:47.286Z,135.40
2023-04-16T04:02:47.272Z,134.70
2023-04-16T04:03:47.281Z,133.70
2023-04-16T04:04:47.180Z,136.20
2023-04-16T04:05:46.992Z,134.10
2023-04-16T04:06:46.898Z,135.70
2023-04-16T04:07:46.838Z,132.50
2023-04-16T04:08:46.800Z,130.50
2023-04-16T04:09:46.744Z,133.50
2023-04-16T04:11:21.249Z,126.80
2023-04-16T04:11:46.538Z,131.70
2023-04-16T04:12:46.514Z,132.20
2023-04-16T04:13:46.414Z,126.30
2023-04-16T04:14:46.358Z,127.60
2023-04-16T04:15:46.304Z,126.80
2023-04-16T04:16:46.289Z,127.10
2023-04-16T04:17:46.224Z,122.00
2023-04-16T04:18:46.122Z,121.50
2023-04-16T04:20:00.028Z,124.10
2023-04-16T04:20:45.993Z,121.20
2023-04-16T04:21:45.920Z,124.10
2023-04-16T04:22:45.836Z,126.70
2023-04-16T04:23:45.770Z,124.60
2023-04-16T04:24:45.683Z,122.00
2023-04-16T04:25:45.685Z,118.60
2023-04-16T04:26:45.616Z,124.20
2023-04-16T04:27:45.505Z,119.80
2023-04-16T04:28:45.470Z,118.50
2023-04-16T04:29:45.360Z,117.80
2023-04-16T04:30:45.329Z,116.70
2023-04-16T04:31:45.338Z,115.30
2023-04-16T04:32:45.212Z,115.70
2023-04-16T04:33:45.142Z,115.40
2023-04-16T04:34:45.112Z,117.80
2023-04-16T04:35:45.005Z,119.30
2023-04-16T04:36:44.946Z,115.50
2023-04-16T04:37:44.878Z,115.50
2023-04-16T04:38:44.837Z,113.30
2023-04-16T04:39:44.776Z,114.40
2023-04-16T04:40:44.700Z,109.60
2023-04-16T04:41:44.622Z,111.50
2023-04-16T04:42:44.547Z,109.50
2023-04-16T04:43:44.465Z,110.60
2023-04-16T04:44:44.430Z,113.60
2023-04-16T04:45:44.381Z,109.00
2023-04-16T04:47:18.992Z,105.80
2023-04-16T04:47:44.241Z,105.50
2023-04-16T04:48:44.181Z,108.70
2023-04-16T04:49:44.092Z,105.10
2023-04-16T04:50:44.041Z,106.60
2023-04-16T04:51:43.980Z,104.70
2023-04-16T04:52:43.981Z,106.40
2023-04-16T04:53:43.857Z,109.30
2023-04-16T04:54:43.814Z,108.20
2023-04-16T04:55:43.699Z,105.10
2023-04-16T04:56:43.686Z,110.60
2023-04-16T04:57:43.581Z,104.10
2023-04-16T04:58:43.548Z,102.60
2023-04-16T04:59:43.477Z,103.60
2023-04-16T05:00:43.496Z,104.90
2023-04-16T05:01:43.377Z,104.10
2023-04-16T05:02:43.480Z,103.40
2023-04-16T05:03:43.421Z,102.90
2023-04-16T05:04:43.209Z,102.70
2023-04-16T05:05:43.075Z,103.10
2023-04-16T05:06:43.019Z,99.30
2023-04-16T05:07:42.963Z,106.30
2023-04-16T05:08:42.928Z,106.60
2023-04-16T05:10:03.947Z,107.10
2023-04-16T05:10:42.749Z,104.60
2023-04-16T05:11:42.705Z,102.20
2023-04-16T05:12:42.625Z,102.00
2023-04-16T05:13:42.552Z,97.70
2023-04-16T05:14:42.518Z,98.60
2023-04-16T05:15:42.463Z,101.00
2023-04-16T05:16:42.452Z,100.20
2023-04-16T05:17:42.361Z,99.70
2023-04-16T05:18:42.263Z,96.30
2023-04-16T05:19:42.182Z,96.70
2023-04-16T05:20:42.144Z,97.90
2023-04-16T05:21:59.449Z,96.60
2023-04-16T05:22:42.009Z,94.30
2023-04-16T05:23:41.942Z,91.40
2023-04-16T05:24:41.925Z,88.90
2023-04-16T05:25:41.816Z,87.10
2023-04-16T05:26:41.748Z,86.60
2023-04-16T05:27:41.690Z,82.10
2023-04-16T05:28:41.656Z,84.70
2023-04-16T05:29:41.561Z,83.30
2023-04-16T05:30:41.538Z,83.90
2023-04-16T05:31:41.468Z,80.10
2023-04-16T05:32:41.449Z,77.90
2023-04-16T05:33:41.343Z,77.70
2023-04-16T05:34:41.212Z,72.80
2023-04-16T05:35:41.183Z,75.90
2023-04-16T05:36:41.087Z,73.40
2023-04-16T05:37:41.023Z,75.50
2023-04-16T05:38:41.016Z,74.40
2023-04-16T05:39:58.341Z,75.20
2023-04-16T05:40:40.874Z,73.30
2023-04-16T05:41:40.767Z,71.20
2023-04-16T05:42:40.733Z,70.90
2023-04-16T05:43:40.686Z,72.70
2023-04-16T05:44:40.577Z,71.60
2023-04-16T05:45:40.525Z,71.80
2023-04-16T05:46:40.564Z,68.50
2023-04-16T05:47:40.403Z,70.20
2023-04-16T05:48:40.352Z,68.70
2023-04-16T05:49:40.307Z,68.40
2023-04-16T05:50:40.249Z,67.70
2023-04-16T05:51:40.187Z,61.70
2023-04-16T05:52:40.098Z,64.80
2023-04-16T05:53:40.038Z,63.90
2023-04-16T05:54:39.998Z,61.90
2023-04-16T05:55:39.897Z,64.10
2023-04-16T05:56:39.858Z,63.50
2023-04-16T05:57:39.748Z,62.60
2023-04-16T05:58:39.681Z,61.90
2023-04-16T05:59:39.642Z,63.20
2023-04-16T06:00:39.549Z,65.10
2023-04-16T06:01:39.550Z,66.00
2023-04-16T06:02:39.623Z,64.30
2023-04-16T06:03:39.445Z,65.70
2023-04-16T06:04:39.360Z,63.90
2023-04-16T06:05:39.291Z,62.50
2023-04-16T06:06:39.173Z,64.50
2023-04-16T06:07:39.134Z,65.70
2023-04-16T06:08:39.073Z,63.00
2023-04-16T06:09:38.988Z,64.70
2023-04-16T06:10:38.920Z,66.80
2023-04-16T06:11:38.923Z,66.10
2023-04-16T06:12:38.819Z,68.50
2023-04-16T06:13:38.776Z,66.80
2023-04-16T06:14:38.694Z,64.60
2023-04-16T06:15:38.654Z,66.60
2023-04-16T06:16:38.580Z,67.00
2023-04-16T06:17:38.552Z,67.00
2023-04-16T06:18:38.468Z,69.40
2023-04-16T06:19:38.372Z,67.40
2023-04-16T06:20:38.316Z,65.20
2023-04-16T06:21:38.264Z,65.70
2023-04-16T06:22:38.187Z,65.20
2023-04-16T06:23:38.120Z,65.30
2023-04-16T06:24:38.093Z,65.30
2023-04-16T06:25:37.997Z,65.50
2023-04-16T06:26:37.903Z,64.90
2023-04-16T06:27:38.160Z,65.50
2023-04-16T06:28:37.803Z,62.60
2023-04-16T06:29:41.480Z,64.80
2023-04-16T06:30:37.711Z,62.70
2023-04-16T06:31:37.662Z,63.10
2023-04-16T06:32:37.599Z,65.60
2023-04-16T06:33:54.886Z,67.70
2023-04-16T06:34:37.437Z,65.90
2023-04-16T06:35:37.392Z,63.50
2023-04-16T06:36:37.337Z,69.50
2023-04-16T06:37:37.216Z,67.70
2023-04-16T06:38:37.157Z,68.50
2023-04-16T06:39:37.118Z,69.70
2023-04-16T06:40:37.055Z,68.30
2023-04-16T06:41:37.001Z,66.80
2023-04-16T06:42:36.947Z,70.00
2023-04-16T06:43:36.840Z,72.30
2023-04-16T06:44:36.794Z,67.90
2023-04-16T06:45:36.784Z,69.90
2023-04-16T06:46:36.735Z,69.80
2023-04-16T06:47:36.656Z,69.10
2023-04-16T06:48:36.554Z,70.30
2023-04-16T06:49:36.512Z,70.80
2023-04-16T06:50:36.411Z,72.10
2023-04-16T06:51:36.352Z,72.00
2023-04-16T06:52:36.327Z,72.80
2023-04-16T06:53:36.226Z,71.80
2023-04-16T06:54:36.154Z,69.90
2023-04-16T06:55:36.082Z,73.40
2023-04-16T06:56:36.064Z,73.50
2023-04-16T06:57:37.352Z,73.50
2023-04-16T06:58:35.910Z,71.90
2023-04-16T06:59:35.826Z,76.10
2023-04-16T07:00:35.793Z,73.60
2023-04-16T07:01:35.715Z,73.10
2023-04-16T07:02:35.834Z,77.30
2023-04-16T07:03:35.873Z,74.60
2023-04-16T07:04:35.503Z,75.30
2023-04-16T07:05:35.442Z,74.90
2023-04-16T07:06:35.409Z,75.30
2023-04-16T07:07:35.331Z,75.50
2023-04-16T07:08:35.275Z,76.10
2023-04-16T07:09:52.567Z,75.10
2023-04-16T07:10:35.153Z,75.80
2023-04-16T07:11:35.054Z,75.50
2023-04-16T07:12:35.015Z,74.50
2023-04-16T07:13:34.982Z,75.70
2023-04-16T07:14:34.891Z,71.30
2023-04-16T07:15:34.836Z,70.60
2023-04-16T07:16:34.832Z,73.90
2023-04-16T07:17:34.772Z,71.90
2023-04-16T07:18:34.612Z,70.50
2023-04-16T07:19:34.557Z,74.40
2023-04-16T07:20:34.544Z,75.00
2023-04-16T07:21:34.432Z,74.80
2023-04-16T07:22:34.417Z,76.60
2023-04-16T07:23:34.347Z,71.70
2023-04-16T07:24:34.254Z,76.50
2023-04-16T07:25:34.231Z,78.70
2023-04-16T07:26:34.137Z,79.90
2023-04-16T07:27:34.050Z,78.50
2023-04-16T07:28:34.012Z,77.80
2023-04-16T07:29:33.965Z,75.30
2023-04-16T07:30:33.877Z,77.80
2023-04-16T07:31:33.869Z,80.60
2023-04-16T07:32:33.770Z,79.10
2023-04-16T07:33:33.745Z,80.40
2023-04-16T07:34:33.624Z,78.10
2023-04-16T07:35:33.553Z,80.00
2023-04-16T07:36:33.494Z,83.20
2023-04-16T07:37:33.425Z,80.60
2023-04-16T07:38:33.378Z,81.60
2023-04-16T07:39:33.320Z,82.50
2023-04-16T07:40:33.211Z,80.90
2023-04-16T07:41:33.145Z,82.70
2023-04-16T07:42:33.113Z,81.50
2023-04-16T07:43:33.059Z,86.30
2023-04-16T07:44:32.979Z,85.00
2023-04-16T07:45:32.931Z,83.50
2023-04-16T07:46:45.705Z,80.10
2023-04-16T07:47:32.803Z,82.70
2023-04-16T07:48:32.766Z,78.40
2023-04-16T07:49:32.655Z,79.40
2023-04-16T07:50:32.605Z,84.60
2023-04-16T07:51:32.566Z,81.90
2023-04-16T07:52:32.509Z,80.30
2023-04-16T07:53:32.432Z,85.30
2023-04-16T07:54:32.328Z,84.70
2023-04-16T07:55:32.290Z,85.70
2023-04-16T07:56:32.191Z,86.70
2023-04-16T07:57:32.176Z,89.40
2023-04-16T07:58:32.099Z,87.50
2023-04-16T07:59:32.060Z,87.80
2023-04-16T08:00:31.969Z,90.80
2023-04-16T08:01:31.904Z,89.90
2023-04-16T08:02:31.844Z,92.60
2023-04-16T08:03:49.363Z,92.40
2023-04-16T08:04:31.903Z,93.80
2023-04-16T08:05:31.642Z,97.30
2023-04-16T08:06:31.611Z,96.40
2023-04-16T08:07:33.946Z,97.90
2023-04-16T08:08:31.488Z,99.50
2023-04-16T08:09:31.427Z,102.70
2023-04-16T08:10:31.362Z,99.90
2023-04-16T08:11:31.271Z,104.10
2023-04-16T08:12:31.183Z,104.00
2023-04-16T08:13:33.095Z,100.40
2023-04-16T08:14:31.052Z,103.50
2023-04-16T08:15:31.075Z,102.00
2023-04-16T08:16:30.961Z,107.60
2023-04-16T08:17:30.925Z,110.90
2023-04-16T08:18:30.851Z,113.00
2023-04-16T08:19:30.765Z,109.90
2023-04-16T08:20:30.677Z,114.00
2023-04-16T08:21:47.992Z,109.20
2023-04-16T08:22:30.554Z,115.80
2023-04-16T08:23:30.507Z,112.90
2023-04-16T08:24:30.420Z,113.70
2023-04-16T08:25:30.387Z,119.70
2023-04-16T08:26:30.340Z,121.30
2023-04-16T08:27:30.271Z,124.80
2023-04-16T08:28:30.191Z,125.00
2023-04-16T08:29:30.130Z,124.20
2023-04-16T08:30:30.063Z,122.60
2023-04-16T08:31:30.108Z,124.00
2023-04-16T08:32:30.002Z,124.90
2023-04-16T08:33:29.877Z,121.20
2023-04-16T08:34:29.777Z,117.20
2023-04-16T08:35:29.741Z,123.50
2023-04-16T08:36:29.713Z,124.60
2023-04-16T08:37:29.614Z,128.10
2023-04-16T08:38:29.553Z,125.60
2023-04-16T08:39:29.527Z,127.80
2023-04-16T08:40:29.461Z,131.40
2023-04-16T08:41:29.340Z,129.90
2023-04-16T08:42:29.300Z,128.20
2023-04-16T08:43:29.236Z,133.10
2023-04-16T08:44:29.171Z,133.80
2023-04-16T08:45:29.096Z,133.70
2023-04-16T08:46:29.117Z,135.30
2023-04-16T08:47:29.020Z,137.40
2023-04-16T08:48:28.924Z,137.90
2023-04-16T08:49:28.881Z,134.20
2023-04-16T08:50:28.788Z,133.00
2023-04-16T08:51:28.739Z,135.50
2023-04-16T08:52:28.636Z,133.90
2023-04-16T08:53:28.639Z,140.90
2023-04-16T08:54:28.513Z,139.50
2023-04-16T08:55:28.514Z,134.60
2023-04-16T08:56:28.446Z,139.60
2023-04-16T08:58:03.594Z,142.00
2023-04-16T08:58:28.258Z,139.20
2023-04-16T08:59:28.193Z,139.80
2023-04-16T09:00:28.135Z,134.60
2023-04-16T09:01:28.114Z,135.10
2023-04-16T09:02:28.193Z,135.00
2023-04-16T09:03:28.043Z,139.10
2023-04-16T09:04:27.968Z,139.00
2023-04-16T09:05:27.834Z,136.60
2023-04-16T09:06:27.815Z,132.50
2023-04-16T09:07:27.708Z,131.70
2023-04-16T09:08:27.625Z,137.50
2023-04-16T09:09:27.577Z,138.10
2023-04-16T09:10:27.530Z,138.60
2023-04-16T09:11:27.480Z,140.50
2023-04-16T09:12:27.420Z,139.50
2023-04-16T09:13:27.333Z,134.30
2023-04-16T09:14:27.254Z,136.40
2023-04-16T09:17:06.514Z,134.80
2023-04-16T09:18:07.394Z,132.80
2023-04-16T09:19:07.439Z,137.10
2023-04-16T09:20:07.287Z,134.80
2023-04-16T09:21:07.256Z,136.00
2023-04-16T09:22:07.199Z,139.20
2023-04-16T09:23:07.129Z,126.00
2023-04-16T09:24:07.042Z,130.10
2023-04-16T09:25:07.011Z,130.20
2023-04-16T09:26:06.883Z,135.50
2023-04-16T09:27:06.847Z,136.60
2023-04-16T09:28:06.798Z,133.70
2023-04-16T09:29:06.718Z,134.30
2023-04-16T09:30:06.681Z,135.80
2023-04-16T09:31:06.603Z,133.80
2023-04-16T09:32:06.613Z,132.30
2023-04-16T09:33:06.431Z,130.50
2023-04-16T09:34:06.449Z,132.50
2023-04-16T09:35:06.340Z,129.60
2023-04-16T09:36:06.248Z,123.00
2023-04-16T09:37:06.209Z,127.20
2023-04-16T09:38:06.153Z,123.00
2023-04-16T09:39:06.092Z,122.60
2023-04-16T09:40:06.068Z,124.90
2023-04-16T09:41:05.983Z,121.80
2023-04-16T09:42:05.919Z,117.00
2023-04-16T09:43:05.862Z,123.50
2023-04-16T09:44:05.765Z,117.70
2023-04-16T09:45:06.287Z,119.40
2023-04-16T09:46:08.222Z,108.20
2023-04-16T09:47:05.607Z,108.70
2023-04-16T09:48:05.533Z,115.10
2023-04-16T09:49:05.479Z,119.40
2023-04-16T09:50:05.370Z,116.80
2023-04-16T09:51:05.327Z,115.90
2023-04-16T09:52:22.629Z,112.00
2023-04-16T09:53:05.221Z,112.60
2023-04-16T09:54:05.140Z,111.00
2023-04-16T09:55:05.074Z,113.40
2023-04-16T09:56:04.990Z,113.20
2023-04-16T09:57:04.927Z,114.40
2023-04-16T09:58:22.220Z,108.90
2023-04-16T09:59:04.817Z,111.40
2023-04-16T10:00:04.795Z,109.00
2023-04-16T10:01:04.689Z,109.60
2023-04-16T10:02:15.334Z,105.80
2023-04-16T10:03:04.643Z,106.20
2023-04-16T10:04:04.608Z,100.50
2023-04-16T10:05:04.438Z,98.50
2023-04-16T10:06:04.420Z,93.40
2023-04-16T10:07:04.311Z,91.70
2023-04-16T10:08:04.244Z,94.80
2023-04-16T10:09:04.161Z,98.90
2023-04-16T10:10:04.139Z,91.70
2023-04-16T10:11:04.062Z,95.80
2023-04-16T10:12:03.959Z,96.10
2023-04-16T10:13:03.899Z,99.60
2023-04-16T10:14:03.887Z,97.90
2023-04-16T10:15:03.773Z,95.40
2023-04-16T10:16:03.747Z,94.10
2023-04-16T10:17:03.729Z,91.50
2023-04-16T10:18:03.706Z,89.80
2023-04-16T10:19:03.550Z,91.90
2023-04-16T10:20:03.480Z,90.60
2023-04-16T10:21:03.439Z,91.10
2023-04-16T10:22:03.376Z,94.70
2023-04-16T10:23:03.278Z,96.60
2023-04-16T10:24:03.235Z,96.00
2023-04-16T10:25:03.134Z,94.80
2023-04-16T10:26:03.114Z,94.20
2023-04-16T10:27:03.009Z,88.00
2023-04-16T10:29:12.366Z,83.20
2023-04-16T10:30:13.083Z,79.60
2023-04-16T10:31:13.086Z,83.00
2023-04-16T10:32:12.974Z,77.20
2023-04-16T10:33:12.913Z,80.70
2023-04-16T10:34:12.884Z,81.00
2023-04-16T10:35:12.763Z,78.20
2023-04-16T10:36:12.728Z,75.70
2023-04-16T10:37:12.646Z,78.00
2023-04-16T10:38:12.603Z,79.20
2023-04-16T10:39:14.705Z,84.90
2023-04-16T10:40:12.606Z,90.60
2023-04-16T10:41:12.382Z,89.70
2023-04-16T10:42:12.289Z,87.00
2023-04-16T10:43:12.279Z,86.30
2023-04-16T10:44:12.220Z,85.60
2023-04-16T10:45:12.131Z,82.50
2023-04-16T10:46:12.065Z,81.50
2023-04-16T10:47:11.999Z,85.40
2023-04-16T10:48:11.936Z,87.10
2023-04-16T10:49:11.909Z,85.90
2023-04-16T10:50:11.847Z,81.90
2023-04-16T10:51:11.745Z,83.20
2023-04-16T10:52:11.698Z,76.30
2023-04-16T10:53:11.649Z,79.60
2023-04-16T10:54:11.580Z,78.40
2023-04-16T10:55:11.474Z,73.50
2023-04-16T10:56:11.456Z,69.80
2023-04-16T10:57:11.340Z,67.10
2023-04-16T10:58:11.314Z,66.50
2023-04-16T10:59:11.429Z,71.90
2023-04-16T11:00:11.178Z,71.80
2023-04-16T11:01:11.111Z,68.70
2023-04-16T11:02:11.134Z,72.70
2023-04-16T11:03:11.079Z,64.90
2023-04-16T11:04:11.080Z,69.00
2023-04-16T11:05:10.830Z,66.70
2023-04-16T11:06:10.765Z,69.30
2023-04-16T11:07:10.703Z,64.10
2023-04-16T11:08:10.670Z,62.10
2023-04-16T11:09:10.831Z,65.30
2023-04-16T11:10:10.559Z,64.60
2023-04-16T11:11:10.451Z,61.50
2023-04-16T11:12:10.415Z,63.50
2023-04-16T11:13:10.347Z,62.00
2023-04-16T11:14:10.346Z,59.40
2023-04-16T11:15:10.239Z,60.40
2023-04-16T11:16:10.167Z,61.90
2023-04-16T11:17:10.068Z,61.10
2023-04-16T11:18:10.050Z,62.70
2023-04-16T11:19:10.221Z,59.40
2023-04-16T11:20:17.901Z,55.90
2023-04-16T11:21:09.813Z,57.90
2023-04-16T11:22:44.715Z,57.10
2023-04-16T11:23:09.748Z,59.40
2023-04-16T11:24:09.650Z,60.20
2023-04-16T11:25:09.576Z,65.20
2023-04-16T11:26:09.549Z,66.50
2023-04-16T11:27:09.431Z,63.40
2023-04-16T11:28:09.426Z,63.90
2023-04-16T11:29:09.471Z,62.90
2023-04-16T11:30:09.240Z,61.80
2023-04-16T11:31:09.314Z,59.20
2023-04-16T11:32:09.178Z,63.40
2023-04-16T11:33:09.112Z,61.10
2023-04-16T11:34:09.022Z,62.30
2023-04-16T11:35:08.924Z,58.50
2023-04-16T11:36:08.898Z,61.40
2023-04-16T11:37:08.849Z,61.90
2023-04-16T11:38:08.805Z,59.50
2023-04-16T11:39:09.003Z,60.30
2023-04-16T11:40:08.650Z,60.10
2023-04-16T11:41:08.598Z,64.40
2023-04-16T11:42:08.548Z,59.90
2023-04-16T11:43:08.467Z,55.90
2023-04-16T11:44:08.379Z,58.50
2023-04-16T11:45:08.340Z,60.30
2023-04-16T11:46:24.121Z,59.70
2023-04-16T11:47:08.257Z,60.20
2023-04-16T11:48:10.621Z,65.70
2023-04-16T11:49:08.177Z,67.40
2023-04-16T11:50:08.004Z,69.50
2023-04-16T11:51:07.934Z,70.20
2023-04-16T11:52:07.902Z,71.60
2023-04-16T11:53:07.811Z,66.60
2023-04-16T11:54:09.123Z,65.30
2023-04-16T11:55:07.719Z,65.10
2023-04-16T11:56:07.693Z,65.50
2023-04-16T11:57:07.530Z,66.80
2023-04-16T11:58:07.472Z,64.00
2023-04-16T11:59:07.527Z,63.60
2023-04-16T12:00:09.197Z,62.80
2023-04-16T12:01:07.301Z,62.30
2023-04-16T12:02:07.303Z,67.70
2023-04-16T12:03:07.296Z,63.70
2023-04-16T12:04:07.521Z,67.80
2023-04-16T12:05:07.032Z,70.30
2023-04-16T12:06:06.991Z,68.60
2023-04-16T12:07:06.909Z,72.30
2023-04-16T12:08:06.875Z,74.10
2023-04-16T12:09:06.816Z,76.40
2023-04-16T12:10:06.711Z,74.90
2023-04-16T12:11:06.665Z,69.80
2023-04-16T12:12:06.631Z,68.60
2023-04-16T12:13:06.554Z,61.90
2023-04-16T12:14:06.449Z,61.00
2023-04-16T12:15:06.389Z,64.80
2023-04-16T12:16:06.356Z,69.40
2023-04-16T12:17:06.392Z,67.10
2023-04-16T12:18:06.264Z,67.10
2023-04-16T12:19:06.190Z,70.30
2023-04-16T12:20:06.126Z,66.40
2023-04-16T12:21:06.055Z,63.80
2023-04-16T12:22:05.978Z,65.40
2023-04-16T12:23:05.882Z,67.10
2023-04-16T12:24:05.845Z,69.60
2023-04-16T12:25:05.756Z,68.30
2023-04-16T12:26:05.716Z,65.10
2023-04-16T12:27:05.679Z,63.70
2023-04-16T12:28:05.597Z,64.10
2023-04-16T12:29:05.509Z,63.20
2023-04-16T12:30:05.453Z,63.90
2023-04-16T12:31:05.451Z,65.30
2023-04-16T12:32:05.361Z,57.60
2023-04-16T12:33:05.307Z,57.40
2023-04-16T12:34:05.255Z,61.00
2023-04-16T12:35:05.156Z,59.20
2023-04-16T12:36:05.114Z,60.40
2023-04-16T12:37:05.019Z,57.20
2023-04-16T12:38:04.952Z,60.20
2023-04-16T12:39:04.897Z,60.80
2023-04-16T12:40:04.841Z,61.90
2023-04-16T12:41:04.765Z,67.50
2023-04-16T12:42:04.700Z,66.60
2023-04-16T12:43:04.635Z,65.60
2023-04-16T12:44:04.571Z,66.00
2023-04-16T12:45:04.547Z,68.00
2023-04-16T12:46:04.751Z,66.90
2023-04-16T12:47:04.355Z,69.00
2023-04-16T12:48:04.347Z,70.50
2023-04-16T12:49:04.240Z,69.70